Terminal Aerodrome Forecast
Issued by NWS

Home | Current Version | Previous Version | Text Only | Print | Product List | Glossary On
Versions: 1 2 3 4 5 6 7 8 9 10 11 12 13 14
000
FTUS43 KPAH 281700
TAFCGI
TAF
KCGI 281720Z 2818/2918 32010KT P6SM BKN030
      TEMPO 2818/2822 33012G18KT SCT035
     FM290100 35003KT P6SM SKC
     FM291500 34005KT P6SM SCT035 BKN080=

USA.gov is the U.S. government's official web portal to all federal, state and local government web resources and services.